Portada
METAR-TAF:

METAR-TAF

Aeroports :

Kasumigaura, Japó

latitud: 36-02N, longitud: 140-12E, altitud: 26 m

Observació

L'informe es va fer fa 14 hores i 34 minuts, a les 05:44 UTC
Vent 7 kt del Est/Sud-Est
Temperatura 20°C
Humitat 49%
Pressió 1001 hPa
Visibilitat 10 km o més
Escasses núvols a una alçada de 5000 ft
Cel ennuvolat a una alçada de 8000 ft
Cel ennuvolat a una alçada de 20000 ft

METAR: RJAK 220544Z 11007KT 9999 FEW050 BKN080 BKN200 20/09 Q1001 RMK 1SC050 5AC080 6CI200 A2957 WIND EST

Hora: 05:18 (20:18 UTC)


TAF: manca

Observacions i pronòstics meteorològics de més de 4000 aeroports (METAR i TAF).

Les estacions disponibles són els punts grocs i vermells al mapa.

Posi el ratolí al punt desitjat per veure el nom de l'estació.

Feu clic per veure les observacions i els pronòstics meteorològics.

Per canviar el mapa: feu clic els botons verds amb una creu de color negre per apropar; al botó verd amb un guió per allunyar la imatge; o en les fletxes verdes per a mapes adjacents.


METAR-TAF: